Terminal Aerodrome Forecast
Issued by NWS

Home | Current Version | Previous Version | Text Only | Print | Product List | Glossary On
Versions: 1 2 3 4 5 6 7 8 9 10 11 12 13 14 15 16 17 18 19 20 21 22 23 24 25 26 27 28 29 30 31 32 33 34 35 36 37 38 39 40 41 42 43 44 45 46 47 48 49 50
000
FTAK31 PANC 282054 AAA
TAFACD
TAF AMD
PACD 282054Z 2821/2918 15026G36KT 2SM -RA BR BKN017
      TEMPO 2821/2824 1SM -RA BR
     FM290000 15032G40KT 4SM -RA BR BKN015
     FM290900 14034G42KT 3SM -RA BR OVC010
     FM291600 15024G32KT 3SM -RA BR OVC008=

USA.gov is the U.S. government's official web portal to all federal, state and local government web resources and services.